Flight Track Log - Related Links

Times and Time Zones

All times are in EST time to prevent confusion due to time zone crossing. See the CCA1681 flight status page for this flight to view local times or setup timezone preferences in your user account.

Time Position Orientation Groundspeed Altitude Reporting Facility
EST Latitude Longitude Course Direction KTS MPH feet Rate Location/Type
Wed 02:22:00 AM 40.3331 117.1842 61° Northeast  Level Estimated
Wed 02:23:00 AM 40.3834 117.3046 61° Northeast  Level Estimated
Wed 02:24:00 AM 40.4335 117.4253 61° Northeast  Level Estimated
Wed 02:25:00 AM 40.4835 117.5461 61° Northeast  Level Estimated
Wed 02:26:00 AM 40.5333 117.6671 62° Northeast  Level Estimated
Wed 02:27:00 AM 40.5831 117.7883 62° Northeast  Level Estimated
Wed 02:28:00 AM 40.6327 117.9096 62° Northeast  Level Estimated
Wed 02:29:00 AM 40.6821 118.0312 62° Northeast  Level Estimated
Wed 02:30:00 AM 40.7315 118.1529 62° Northeast  Level Estimated
Wed 02:31:00 AM 40.7807 118.2748 62° Northeast  Level Estimated
Wed 02:32:00 AM 40.8298 118.3969 62° Northeast  Level Estimated
Wed 02:33:00 AM 40.8788 118.5191 62° Northeast  Level Estimated
Wed 02:34:00 AM 40.9276 118.6416 62° Northeast  Level Estimated
Wed 02:35:00 AM 40.9763 118.7642 62° Northeast  Level Estimated
Wed 02:36:00 AM 41.0249 118.8870 62° Northeast  Level Estimated
Wed 02:37:00 AM 41.0733 119.0100 62° Northeast  Level Estimated
Wed 02:38:00 AM 41.1216 119.1331 62° Northeast  Level Estimated
Wed 02:39:00 AM 41.1698 119.2565 63° Northeast  Level Estimated
Wed 02:40:00 AM 41.2179 119.3800 63° Northeast  Level Estimated
Wed 02:41:00 AM 41.2658 119.5037 63° Northeast  Level Estimated
Wed 02:42:00 AM 41.3136 119.6276 63° Northeast  Level Estimated
Wed 02:43:00 AM 41.3612 119.7517 63° Northeast  Level Estimated
Wed 02:44:00 AM 41.4087 119.8760 63° Northeast  Level Estimated
Wed 02:45:00 AM 41.4561 120.0004 63° Northeast  Level Estimated
Wed 02:46:00 AM 41.5034 120.1250 63° Northeast  Level Estimated
Wed 02:47:00 AM 41.5505 120.2498 63° Northeast  Level Estimated
Wed 02:48:00 AM 41.5975 120.3748 63° Northeast  Level Estimated
Wed 02:49:00 AM 41.6443 120.5000 63° Northeast  Level Estimated
Wed 02:50:00 AM 41.6911 120.6253 63° Northeast  Level Estimated
Wed 02:51:00 AM 41.7376 120.7508 64° Northeast  Level Estimated
Wed 02:52:00 AM 41.7841 120.8765 64° Northeast  Level Estimated
Wed 02:53:00 AM 41.8304 121.0024 64° Northeast  Level Estimated
Wed 02:54:00 AM 41.8765 121.1285 64° Northeast  Level Estimated
Wed 02:55:00 AM 41.9225 121.2548 64° Northeast  Level Estimated
Wed 02:56:00 AM 41.9684 121.3812 64° Northeast  Level Estimated
Wed 02:57:00 AM 42.0142 121.5078 64° Northeast  Level Estimated
Wed 02:58:00 AM 42.0598 121.6346 64° Northeast  Level Estimated
Wed 02:59:00 AM 42.1053 121.7616 64° Northeast  Level Estimated
Wed 03:00:00 AM 42.1506 121.8888 64° Northeast  Level Estimated
Wed 03:01:00 AM 42.1958 122.0161 64° Northeast  Level Estimated
Wed 03:02:00 AM 42.2408 122.1437 64° Northeast  Level Estimated
Wed 03:03:00 AM 42.2857 122.2714 65° Northeast  Level Estimated
Wed 03:04:00 AM 42.3305 122.3993 65° Northeast  Level Estimated
Wed 03:05:00 AM 42.3751 122.5273 65° Northeast  Level Estimated
Wed 03:06:00 AM 42.4196 122.6556 65° Northeast  Level Estimated
Wed 03:07:00 AM 42.4639 122.7840 65° Northeast  Level Estimated
Wed 03:08:00 AM 42.5081 122.9127 65° Northeast  Level Estimated
Wed 03:09:00 AM 42.5522 123.0415 65° Northeast  Level Estimated
Wed 03:10:00 AM 42.5961 123.1704 65° Northeast  Level Estimated
Wed 03:11:00 AM 42.6398 123.2996 65° Northeast  Level Estimated
Wed 03:12:00 AM 42.6834 123.4290 65° Northeast  Level Estimated
Wed 03:13:00 AM 42.7269 123.5585 65° Northeast  Level Estimated
Wed 03:14:00 AM 42.7702 123.6882 66° East  Level Estimated
Wed 03:15:00 AM 42.8134 123.8181 66° East  Level Estimated
Wed 03:16:00 AM 42.8564 123.9482 66° East  Level Estimated
Wed 03:17:00 AM 42.8993 124.0784 66° East  Level Estimated
Wed 03:18:00 AM 42.9420 124.2088 66° East  Level Estimated
Wed 03:19:00 AM 42.9846 124.3395 66° East  Level Estimated
Wed 03:20:00 AM 43.0270 124.4703 66° East  Level Estimated
Wed 03:21:00 AM 43.0693 124.6012 66° East  Level Estimated
Wed 03:22:00 AM 43.1114 124.7324 66° East  Level Estimated
Wed 03:23:00 AM 43.1534 124.8637 66° East  Level Estimated
Wed 03:24:00 AM 43.1953 124.9953 66° East  Level Estimated
Wed 03:25:00 AM 43.2369 125.1270 66° East  Level Estimated
Wed 03:26:00 AM 43.2785 125.2588 67° East  Level Estimated
Wed 03:27:00 AM 43.3198 125.3909 67° East  Level Estimated
Wed 03:28:00 AM 43.3611 125.5231 67° East  Level Estimated
Wed 03:29:00 AM 43.4021 125.6556 67° East  Level Estimated
Wed 03:30:00 AM 43.4431 125.7882 67° East  Level Estimated
Wed 03:31:00 AM 43.4838 125.9209 67° East  Level Estimated
Wed 03:32:00 AM 43.5245 126.0539 67° East  Level Estimated
Wed 03:33:00 AM 43.5649 126.1870 67° East  Level Estimated
Wed 03:34:00 AM 43.6052 126.3203 67° East  Level Estimated
Wed 03:35:00 AM 43.6454 126.4538 67° East  Level Estimated
Wed 03:36:00 AM 43.6854 126.5875 67° East  Level Estimated
Wed 03:37:00 AM 43.7252 126.7213 68° East  Level Estimated
Wed 03:38:00 AM 43.7649 126.8554 68° East  Level Estimated
Wed 03:39:00 AM 43.8044 126.9896 68° East  Level Estimated
Wed 03:40:00 AM 43.8438 127.1239 68° East  Level Estimated
Wed 03:41:00 AM 43.8830 127.2585 68° East  Level Estimated
Wed 03:42:00 AM 43.9221 127.3932 68° East  Level Estimated
Wed 03:43:00 AM 43.9610 127.5281 68° East  Level Estimated
Wed 03:44:00 AM 43.9997 127.6632 68° East  Level Estimated
Wed 03:45:00 AM 44.0383 127.7985 68° East  Level Estimated
Wed 03:46:00 AM 44.0767 127.9339 68° East  Level Estimated
Wed 03:47:00 AM 44.1150 128.0695 69° East  Level Estimated
Wed 03:48:00 AM 44.1531 128.2053 69° East  Level Estimated
Wed 03:49:00 AM 44.1910 128.3413 69° East  Level Estimated
Wed 03:50:00 AM 44.2288 128.4774 69° East  Level Estimated
Wed 03:51:00 AM 44.2664 128.6138 69° East  Level Estimated
Wed 03:52:00 AM 44.3038 128.7502 69° East  Level Estimated
Wed 03:53:00 AM 44.3411 128.8869 69° East  Level Estimated
Wed 03:54:00 AM 44.3782 129.0237 69° East  Level Estimated
Wed 03:55:00 AM 44.4152 129.1608 69° East  Level Estimated
Wed 03:56:00 AM 44.4520 129.2979 69° East  Level Estimated

Login

Don't have an account? Register now (free) for customized features, flight alerts, and more!